Terminal Aerodrome Forecast
Issued by NWS

Home | Current Version | Previous Version | Text Only | Print | Product List | Glossary On
Versions: 1 2 3 4 5 6 7 8 9 10 11 12 13 14 15 16 17
000
FTUS43 KSGF 272322
TAFJLN
TAF
KJLN 272322Z 2800/2824 02006KT P6SM VCTS BKN070CB
      TEMPO 2800/2802 VRB15G25KT 2SM +TSRA BR OVC025CB
     FM280400 14005KT P6SM VCTS BKN080CB
     FM280600 29005KT P6SM BKN025
     FM281100 34005KT P6SM BKN015
     FM281600 35007KT P6SM BKN035=

USA.gov is the U.S. government's official web portal to all federal, state and local government web resources and services.